Time,TemperatureF,DewpointF,PressureIn,WindDirection,WindDirectionDegrees,WindSpeedMPH,WindSpeedGustMPH,Humidity,HourlyPrecipIn,Conditions,Clouds,dailyrainin,SoftwareType,DateUTC
2013-03-20 00:04:00,46.2,44.3,30.09,SE,130,0.0,0.0,93,0.00,,,0.00,Wunderground v.1.12,2013-03-20 07:04:00,
2013-03-20 00:09:00,46.2,44.3,30.09,SE,130,0.0,0.0,93,0.00,,,0.00,Wunderground v.1.12,2013-03-20 07:09:00,
2013-03-20 00:15:00,46.2,44.3,30.09,SE,130,0.0,0.0,93,0.00,,,0.01,Wunderground v.1.12,2013-03-20 07:15:00,
2013-03-20 00:20:00,46.2,44.3,30.08,SE,130,0.0,0.0,93,0.00,,,0.01,Wunderground v.1.12,2013-03-20 07:20:00,
2013-03-20 00:26:00,46.2,44.3,30.08,SE,130,0.0,0.0,93,0.00,,,0.01,Wunderground v.1.12,2013-03-20 07:26:00,
2013-03-20 00:31:00,46.2,44.3,30.09,SE,130,0.0,0.0,93,0.00,,,0.02,Wunderground v.1.12,2013-03-20 07:31:00,
2013-03-20 00:37:00,46.2,44.3,30.09,SE,130,0.0,0.0,93,0.00,,,0.02,Wunderground v.1.12,2013-03-20 07:37:00,
2013-03-20 00:42:00,46.2,44.3,30.09,SE,130,0.0,0.0,93,0.00,,,0.02,Wunderground v.1.12,2013-03-20 07:42:00,
2013-03-20 00:48:00,46.1,44.2,30.09,SE,130,0.0,0.0,93,0.04,,,0.03,Wunderground v.1.12,2013-03-20 07:48:00,
2013-03-20 00:54:00,46.1,44.2,30.09,SE,130,0.0,0.0,93,0.12,,,0.05,Wunderground v.1.12,2013-03-20 07:54:00,
2013-03-20 01:00:00,46.1,44.2,30.09,SE,130,0.0,0.0,93,0.13,,,0.06,Wunderground v.1.12,2013-03-20 08:00:00,
2013-03-20 01:06:00,46.2,44.3,30.09,SE,130,0.0,0.0,93,0.20,,,0.08,Wunderground v.1.12,2013-03-20 08:06:00,
2013-03-20 01:12:00,46.2,44.3,30.09,SE,130,0.0,0.0,93,0.11,,,0.09,Wunderground v.1.12,2013-03-20 08:12:00,
2013-03-20 01:17:00,46.4,44.5,30.09,SE,130,0.0,0.0,93,0.19,,,0.10,Wunderground v.1.12,2013-03-20 08:17:00,
2013-03-20 01:22:00,46.4,44.5,30.09,SE,130,0.0,0.0,93,0.13,,,0.11,Wunderground v.1.12,2013-03-20 08:22:00,
2013-03-20 01:28:00,46.2,44.3,30.09,SE,130,0.0,0.0,93,0.11,,,0.12,Wunderground v.1.12,2013-03-20 08:28:00,
2013-03-20 01:33:00,46.1,44.2,30.10,SE,130,0.0,0.0,93,0.06,,,0.13,Wunderground v.1.12,2013-03-20 08:33:00,
2013-03-20 01:39:00,46.1,44.2,30.10,SE,130,0.0,0.0,93,0.12,,,0.14,Wunderground v.1.12,2013-03-20 08:39:00,
2013-03-20 01:44:00,46.0,44.1,30.10,SE,130,0.0,0.0,93,0.10,,,0.15,Wunderground v.1.12,2013-03-20 08:44:00,
2013-03-20 01:49:00,45.7,43.8,30.10,SE,130,0.0,0.0,93,0.12,,,0.16,Wunderground v.1.12,2013-03-20 08:49:00,
2013-03-20 01:55:00,45.7,43.8,30.10,SE,130,0.0,0.0,93,0.10,,,0.16,Wunderground v.1.12,2013-03-20 08:55:00,
2013-03-20 02:00:00,45.5,43.6,30.10,SE,130,0.0,0.0,93,0.09,,,0.17,Wunderground v.1.12,2013-03-20 09:00:00,
2013-03-20 02:05:00,45.5,43.6,30.10,SE,130,0.0,0.0,93,0.07,,,0.18,Wunderground v.1.12,2013-03-20 09:05:00,
2013-03-20 02:10:00,45.4,43.5,30.10,SE,130,0.0,0.0,93,0.07,,,0.18,Wunderground v.1.12,2013-03-20 09:10:00,
2013-03-20 02:15:00,45.4,43.5,30.10,SE,130,0.0,0.0,93,0.05,,,0.18,Wunderground v.1.12,2013-03-20 09:15:00,
2013-03-20 02:20:00,45.2,43.3,30.10,SE,130,0.0,0.0,93,0.04,,,0.19,Wunderground v.1.12,2013-03-20 09:20:00,
2013-03-20 02:25:00,45.2,43.3,30.10,SE,130,1.0,1.0,93,0.04,,,0.19,Wunderground v.1.12,2013-03-20 09:25:00,
2013-03-20 02:30:00,45.2,43.3,30.10,SE,130,0.0,0.0,93,0.04,,,0.19,Wunderground v.1.12,2013-03-20 09:30:00,
2013-03-20 02:35:00,45.2,43.3,30.10,SE,133,0.0,0.0,93,0.04,,,0.19,Wunderground v.1.12,2013-03-20 09:35:00,
2013-03-20 02:40:00,45.1,43.2,30.10,SE,133,0.0,0.0,93,0.04,,,0.20,Wunderground v.1.12,2013-03-20 09:40:00,
2013-03-20 02:45:00,45.1,43.2,30.10,SE,133,0.0,0.0,93,0.04,,,0.20,Wunderground v.1.12,2013-03-20 09:45:00,
2013-03-20 02:50:00,45.1,43.2,30.09,SE,133,0.0,0.0,93,0.04,,,0.20,Wunderground v.1.12,2013-03-20 09:50:00,
2013-03-20 02:55:00,45.1,43.2,30.09,SE,133,0.0,0.0,93,0.00,,,0.20,Wunderground v.1.12,2013-03-20 09:55:00,
2013-03-20 03:00:00,45.1,43.2,30.09,SE,133,0.0,0.0,93,0.00,,,0.20,Wunderground v.1.12,2013-03-20 10:00:00,
2013-03-20 03:05:00,45.1,43.2,30.09,SE,133,0.0,0.0,93,0.00,,,0.20,Wunderground v.1.12,2013-03-20 10:05:00,
2013-03-20 03:11:00,45.2,43.6,30.09,SE,133,0.0,0.0,94,0.00,,,0.20,Wunderground v.1.12,2013-03-20 10:11:00,
2013-03-20 03:16:00,45.4,43.8,30.08,SE,133,0.0,0.0,94,0.00,,,0.20,Wunderground v.1.12,2013-03-20 10:16:00,
2013-03-20 03:21:00,45.5,43.9,30.08,SE,133,0.0,0.0,94,0.00,,,0.20,Wunderground v.1.12,2013-03-20 10:21:00,
2013-03-20 03:27:00,45.8,44.2,30.08,SE,133,0.0,0.0,94,0.00,,,0.20,Wunderground v.1.12,2013-03-20 10:27:00,
2013-03-20 03:32:00,46.0,44.4,30.07,SE,133,0.0,0.0,94,0.00,,,0.20,Wunderground v.1.12,2013-03-20 10:32:00,
2013-03-20 03:37:00,46.1,44.5,30.07,SE,133,0.0,0.0,94,0.00,,,0.20,Wunderground v.1.12,2013-03-20 10:37:00,
2013-03-20 03:42:00,46.2,44.6,30.07,SE,133,0.0,0.0,94,0.00,,,0.20,Wunderground v.1.12,2013-03-20 10:42:00,
2013-03-20 03:47:00,46.2,44.6,30.07,SE,133,0.0,0.0,94,0.00,,,0.20,Wunderground v.1.12,2013-03-20 10:47:00,
2013-03-20 03:52:00,46.2,44.6,30.07,SE,133,0.0,0.0,94,0.00,,,0.20,Wunderground v.1.12,2013-03-20 10:52:00,
2013-03-20 03:57:00,46.4,45.0,30.07,SE,133,0.0,0.0,95,0.00,,,0.20,Wunderground v.1.12,2013-03-20 10:57:00,
2013-03-20 04:03:00,46.4,44.8,30.06,SE,133,0.0,0.0,94,0.00,,,0.20,Wunderground v.1.12,2013-03-20 11:03:00,
2013-03-20 04:08:00,46.4,44.8,30.06,SE,133,0.0,0.0,94,0.00,,,0.20,Wunderground v.1.12,2013-03-20 11:08:00,
2013-03-20 04:13:00,46.4,45.0,30.06,SE,133,0.0,1.0,95,0.00,,,0.20,Wunderground v.1.12,2013-03-20 11:13:00,
2013-03-20 04:18:00,46.5,44.9,30.06,SE,133,0.0,0.0,94,0.00,,,0.20,Wunderground v.1.12,2013-03-20 11:18:00,
2013-03-20 04:23:00,46.5,44.9,30.06,SE,133,0.0,1.0,94,0.00,,,0.20,Wunderground v.1.12,2013-03-20 11:23:00,
2013-03-20 04:28:00,46.5,44.9,30.06,SE,133,0.0,0.0,94,0.00,,,0.20,Wunderground v.1.12,2013-03-20 11:28:00,
2013-03-20 04:33:00,46.7,45.3,30.05,SE,133,0.0,1.0,95,0.00,,,0.20,Wunderground v.1.12,2013-03-20 11:33:00,
2013-03-20 04:38:00,46.7,45.3,30.05,SE,133,0.0,1.0,95,0.00,,,0.20,Wunderground v.1.12,2013-03-20 11:38:00,
2013-03-20 04:43:00,46.7,45.1,30.05,SE,133,0.0,0.0,94,0.00,,,0.20,Wunderground v.1.12,2013-03-20 11:43:00,
2013-03-20 04:48:00,46.7,45.1,30.05,South,180,0.0,1.0,94,0.00,,,0.20,Wunderground v.1.12,2013-03-20 11:48:00,
2013-03-20 04:53:00,46.5,44.9,30.05,South,180,0.0,0.0,94,0.00,,,0.20,Wunderground v.1.12,2013-03-20 11:53:00,
2013-03-20 04:59:00,46.4,44.8,30.05,South,180,0.0,0.0,94,0.00,,,0.20,Wunderground v.1.12,2013-03-20 11:59:00,
2013-03-20 05:04:00,46.2,44.6,30.05,South,180,0.0,0.0,94,0.00,,,0.20,Wunderground v.1.12,2013-03-20 12:04:00,
2013-03-20 05:09:00,46.2,44.6,30.05,South,180,0.0,0.0,94,0.00,,,0.21,Wunderground v.1.12,2013-03-20 12:09:00,
2013-03-20 05:14:00,46.4,44.8,30.05,South,180,0.0,0.0,94,0.00,,,0.21,Wunderground v.1.12,2013-03-20 12:14:00,
2013-03-20 05:19:00,46.4,44.8,30.05,South,180,0.0,0.0,94,0.00,,,0.21,Wunderground v.1.12,2013-03-20 12:19:00,
2013-03-20 05:24:00,46.4,44.8,30.05,South,180,0.0,0.0,94,0.00,,,0.21,Wunderground v.1.12,2013-03-20 12:24:00,
2013-03-20 05:29:00,46.5,45.1,30.05,South,180,0.0,0.0,95,0.00,,,0.21,Wunderground v.1.12,2013-03-20 12:29:00,
2013-03-20 05:34:00,46.5,45.1,30.05,South,180,0.0,0.0,95,0.00,,,0.21,Wunderground v.1.12,2013-03-20 12:34:00,
2013-03-20 05:39:00,46.5,45.1,30.05,South,180,0.0,0.0,95,0.00,,,0.21,Wunderground v.1.12,2013-03-20 12:39:00,
2013-03-20 05:44:00,46.7,45.3,30.05,South,180,0.0,0.0,95,0.00,,,0.21,Wunderground v.1.12,2013-03-20 12:44:00,
2013-03-20 05:49:00,46.7,45.3,30.04,South,180,0.0,0.0,95,0.00,,,0.21,Wunderground v.1.12,2013-03-20 12:49:00,
2013-03-20 05:54:00,46.7,45.3,30.04,South,180,0.0,0.0,95,0.00,,,0.21,Wunderground v.1.12,2013-03-20 12:54:00,
2013-03-20 06:00:00,46.8,45.4,30.04,South,180,0.0,0.0,95,0.00,,,0.21,Wunderground v.1.12,2013-03-20 13:00:00,
2013-03-20 06:05:00,46.8,45.4,30.05,South,180,0.0,0.0,95,0.00,,,0.21,Wunderground v.1.12,2013-03-20 13:05:00,
2013-03-20 06:10:00,46.5,44.9,30.05,South,180,0.0,0.0,94,0.00,,,0.22,Wunderground v.1.12,2013-03-20 13:10:00,
2013-03-20 06:15:00,46.4,44.8,30.05,South,180,0.0,0.0,94,0.00,,,0.22,Wunderground v.1.12,2013-03-20 13:15:00,
2013-03-20 06:20:00,46.4,45.0,30.05,South,180,0.0,0.0,95,0.00,,,0.22,Wunderground v.1.12,2013-03-20 13:20:00,
2013-03-20 06:25:00,46.4,45.0,30.05,South,180,0.0,0.0,95,0.00,,,0.22,Wunderground v.1.12,2013-03-20 13:25:00,
2013-03-20 06:30:00,46.5,45.1,30.04,South,180,0.0,0.0,95,0.00,,,0.22,Wunderground v.1.12,2013-03-20 13:30:00,
2013-03-20 06:36:00,46.5,45.1,30.04,South,180,0.0,0.0,95,0.00,,,0.22,Wunderground v.1.12,2013-03-20 13:36:00,
2013-03-20 06:41:00,46.7,45.3,30.04,South,180,0.0,0.0,95,0.00,,,0.22,Wunderground v.1.12,2013-03-20 13:41:00,
2013-03-20 06:46:00,46.7,45.3,30.05,South,180,0.0,0.0,95,0.00,,,0.22,Wunderground v.1.12,2013-03-20 13:46:00,
2013-03-20 06:51:00,46.8,45.4,30.05,South,177,0.0,3.0,95,0.00,,,0.23,Wunderground v.1.12,2013-03-20 13:51:00,
2013-03-20 06:56:00,46.8,45.4,30.05,SE,128,0.0,1.0,95,0.00,,,0.23,Wunderground v.1.12,2013-03-20 13:56:00,
2013-03-20 07:01:00,46.8,45.4,30.04,SE,136,0.0,2.0,95,0.00,,,0.23,Wunderground v.1.12,2013-03-20 14:01:00,
2013-03-20 07:06:00,46.8,45.4,30.04,SSE,147,0.0,4.0,95,0.00,,,0.23,Wunderground v.1.12,2013-03-20 14:06:00,
2013-03-20 07:11:00,46.8,45.4,30.04,SSE,147,0.0,1.0,95,0.00,,,0.23,Wunderground v.1.12,2013-03-20 14:11:00,
2013-03-20 07:17:00,46.7,45.3,30.04,SE,146,2.0,2.0,95,0.00,,,0.23,Wunderground v.1.12,2013-03-20 14:17:00,
2013-03-20 07:22:00,46.7,45.3,30.04,SE,146,0.0,1.0,95,0.00,,,0.23,Wunderground v.1.12,2013-03-20 14:22:00,
2013-03-20 07:27:00,46.5,45.1,30.04,SE,146,0.0,0.0,95,0.00,,,0.23,Wunderground v.1.12,2013-03-20 14:27:00,
2013-03-20 07:32:00,46.5,45.1,30.05,SE,146,0.0,0.0,95,0.00,,,0.23,Wunderground v.1.12,2013-03-20 14:32:00,
2013-03-20 07:37:00,46.5,45.1,30.05,SE,146,0.0,3.0,95,0.00,,,0.23,Wunderground v.1.12,2013-03-20 14:37:00,
2013-03-20 07:42:00,46.5,45.1,30.05,SE,146,0.0,0.0,95,0.00,,,0.23,Wunderground v.1.12,2013-03-20 14:42:00,
2013-03-20 07:47:00,46.5,45.1,30.05,SE,146,0.0,0.0,95,0.00,,,0.24,Wunderground v.1.12,2013-03-20 14:47:00,
2013-03-20 07:52:00,46.5,45.1,30.05,SE,146,0.0,0.0,95,0.00,,,0.24,Wunderground v.1.12,2013-03-20 14:52:00,
2013-03-20 07:57:00,46.7,45.3,30.05,SE,146,0.0,0.0,95,0.00,,,0.24,Wunderground v.1.12,2013-03-20 14:57:00,
2013-03-20 08:02:00,46.7,45.3,30.05,SE,146,0.0,0.0,95,0.00,,,0.24,Wunderground v.1.12,2013-03-20 15:02:00,
2013-03-20 08:07:00,46.7,45.3,30.05,SE,146,0.0,0.0,95,0.00,,,0.25,Wunderground v.1.12,2013-03-20 15:07:00,
2013-03-20 08:12:00,46.8,45.4,30.05,SE,146,0.0,0.0,95,0.09,,,0.26,Wunderground v.1.12,2013-03-20 15:12:00,
2013-03-20 08:17:00,46.8,45.4,30.06,SE,146,0.0,0.0,95,0.07,,,0.26,Wunderground v.1.12,2013-03-20 15:17:00,
2013-03-20 08:22:00,46.8,45.4,30.06,SE,146,0.0,0.0,95,0.04,,,0.26,Wunderground v.1.12,2013-03-20 15:22:00,
2013-03-20 08:27:00,47.0,45.6,30.06,SE,146,0.0,0.0,95,0.00,,,0.26,Wunderground v.1.12,2013-03-20 15:27:00,
2013-03-20 08:32:00,47.0,45.6,30.06,SE,146,0.0,0.0,95,0.00,,,0.26,Wunderground v.1.12,2013-03-20 15:32:00,
2013-03-20 08:37:00,47.0,45.6,30.06,SE,146,0.0,0.0,95,0.00,,,0.27,Wunderground v.1.12,2013-03-20 15:37:00,
2013-03-20 08:42:00,47.0,45.6,30.06,SE,146,0.0,0.0,95,0.00,,,0.27,Wunderground v.1.12,2013-03-20 15:42:00,
2013-03-20 08:47:00,47.1,45.7,30.06,SE,146,0.0,0.0,95,0.00,,,0.27,Wunderground v.1.12,2013-03-20 15:47:00,
2013-03-20 08:52:00,47.3,45.9,30.06,SE,146,0.0,0.0,95,0.00,,,0.27,Wunderground v.1.12,2013-03-20 15:52:00,
2013-03-20 08:57:00,47.3,45.9,30.06,SE,146,0.0,0.0,95,0.00,,,0.27,Wunderground v.1.12,2013-03-20 15:57:00,
2013-03-20 09:03:00,47.4,46.0,30.07,SE,146,0.0,0.0,95,0.21,,,0.29,Wunderground v.1.12,2013-03-20 16:03:00,
2013-03-20 09:08:00,47.6,46.2,30.07,SE,146,0.0,0.0,95,0.14,,,0.30,Wunderground v.1.12,2013-03-20 16:08:00,
2013-03-20 09:13:00,47.7,46.3,30.07,SE,146,0.0,0.0,95,0.06,,,0.30,Wunderground v.1.12,2013-03-20 16:13:00,
2013-03-20 09:18:00,47.7,46.3,30.07,SE,146,0.0,0.0,95,0.05,,,0.31,Wunderground v.1.12,2013-03-20 16:18:00,
2013-03-20 09:23:00,47.7,46.3,30.07,SE,146,0.0,0.0,95,0.05,,,0.31,Wunderground v.1.12,2013-03-20 16:23:00,
2013-03-20 09:28:00,47.9,46.5,30.07,SE,146,0.0,1.0,95,0.05,,,0.31,Wunderground v.1.12,2013-03-20 16:28:00,
2013-03-20 09:34:00,48.0,46.6,30.07,SE,146,0.0,0.0,95,0.00,,,0.31,Wunderground v.1.12,2013-03-20 16:34:00,
2013-03-20 09:39:00,48.0,46.6,30.07,SE,146,0.0,0.0,95,0.00,,,0.32,Wunderground v.1.12,2013-03-20 16:39:00,
2013-03-20 09:44:00,48.2,46.8,30.07,SE,146,0.0,0.0,95,0.00,,,0.32,Wunderground v.1.12,2013-03-20 16:44:00,
2013-03-20 09:49:00,48.0,46.6,30.08,SE,146,0.0,0.0,95,0.07,,,0.33,Wunderground v.1.12,2013-03-20 16:49:00,
2013-03-20 09:54:00,48.2,46.8,30.08,SE,146,0.0,0.0,95,0.08,,,0.34,Wunderground v.1.12,2013-03-20 16:54:00,
2013-03-20 09:59:00,48.2,46.8,30.08,SE,146,0.0,0.0,95,0.11,,,0.35,Wunderground v.1.12,2013-03-20 16:59:00,
2013-03-20 10:05:00,48.5,47.1,30.08,SE,146,0.0,0.0,95,0.09,,,0.35,Wunderground v.1.12,2013-03-20 17:05:00,
2013-03-20 10:10:00,48.5,47.1,30.08,SE,146,0.0,0.0,95,0.05,,,0.35,Wunderground v.1.12,2013-03-20 17:10:00,
2013-03-20 10:15:00,48.6,47.2,30.08,SE,146,0.0,0.0,95,0.05,,,0.36,Wunderground v.1.12,2013-03-20 17:15:00,
2013-03-20 10:20:00,48.8,47.4,30.08,SE,146,0.0,0.0,95,0.05,,,0.36,Wunderground v.1.12,2013-03-20 17:20:00,
2013-03-20 10:25:00,48.9,47.5,30.08,SE,146,0.0,0.0,95,0.04,,,0.36,Wunderground v.1.12,2013-03-20 17:25:00,
2013-03-20 10:30:00,49.1,47.7,30.08,SE,146,0.0,0.0,95,0.00,,,0.36,Wunderground v.1.12,2013-03-20 17:30:00,
2013-03-20 10:35:00,49.2,47.8,30.08,SE,146,0.0,0.0,95,0.00,,,0.36,Wunderground v.1.12,2013-03-20 17:35:00,
2013-03-20 10:40:00,49.4,48.0,30.08,SE,146,0.0,0.0,95,0.00,,,0.36,Wunderground v.1.12,2013-03-20 17:40:00,
2013-03-20 10:45:00,49.6,48.2,30.08,SE,146,0.0,0.0,95,0.00,,,0.36,Wunderground v.1.12,2013-03-20 17:45:00,
2013-03-20 10:50:00,49.8,48.4,30.09,SE,146,0.0,0.0,95,0.00,,,0.36,Wunderground v.1.12,2013-03-20 17:50:00,
2013-03-20 10:55:00,49.8,48.4,30.09,SE,146,0.0,0.0,95,0.00,,,0.36,Wunderground v.1.12,2013-03-20 17:55:00,
2013-03-20 11:00:00,49.9,48.5,30.09,SE,146,0.0,0.0,95,0.00,,,0.36,Wunderground v.1.12,2013-03-20 18:00:00,
2013-03-20 11:05:00,49.9,48.5,30.09,SE,146,0.0,0.0,95,0.00,,,0.37,Wunderground v.1.12,2013-03-20 18:05:00,
2013-03-20 11:10:00,50.2,48.8,30.09,SE,146,0.0,0.0,95,0.00,,,0.37,Wunderground v.1.12,2013-03-20 18:10:00,
2013-03-20 11:15:00,50.1,48.7,30.09,SE,146,0.0,0.0,95,0.00,,,0.37,Wunderground v.1.12,2013-03-20 18:15:00,
2013-03-20 11:20:00,50.2,48.8,30.09,SE,146,0.0,0.0,95,0.00,,,0.37,Wunderground v.1.12,2013-03-20 18:20:00,
2013-03-20 11:26:00,50.4,49.0,30.09,SE,146,0.0,0.0,95,0.00,,,0.37,Wunderground v.1.12,2013-03-20 18:26:00,
2013-03-20 11:31:00,50.5,49.1,30.09,SE,146,0.0,0.0,95,0.00,,,0.37,Wunderground v.1.12,2013-03-20 18:31:00,
2013-03-20 11:36:00,50.7,49.3,30.09,SE,146,0.0,0.0,95,0.00,,,0.37,Wunderground v.1.12,2013-03-20 18:36:00,
2013-03-20 11:42:00,50.8,49.4,30.09,SE,146,0.0,0.0,95,0.00,,,0.37,Wunderground v.1.12,2013-03-20 18:42:00,
2013-03-20 11:47:00,51.0,49.6,30.08,SE,146,0.0,5.0,95,0.00,,,0.37,Wunderground v.1.12,2013-03-20 18:47:00,
2013-03-20 11:52:00,51.4,50.0,30.08,SSE,148,0.0,3.0,95,0.00,,,0.37,Wunderground v.1.12,2013-03-20 18:52:00,
2013-03-20 11:57:00,52.2,51.1,30.08,SE,146,0.0,3.0,96,0.00,,,0.37,Wunderground v.1.12,2013-03-20 18:57:00,
2013-03-20 12:02:00,52.5,51.4,30.08,SE,146,1.0,2.0,96,0.00,,,0.37,Wunderground v.1.12,2013-03-20 19:02:00,
2013-03-20 12:08:00,52.6,51.2,30.08,SE,144,0.0,3.0,95,0.00,,,0.37,Wunderground v.1.12,2013-03-20 19:08:00,
2013-03-20 12:13:00,52.5,51.1,30.08,SE,144,0.0,0.0,95,0.00,,,0.37,Wunderground v.1.12,2013-03-20 19:13:00,
2013-03-20 12:18:00,52.3,50.9,30.08,SE,144,0.0,0.0,95,0.00,,,0.37,Wunderground v.1.12,2013-03-20 19:18:00,
2013-03-20 12:23:00,52.3,50.9,30.08,SE,144,0.0,0.0,95,0.00,,,0.37,Wunderground v.1.12,2013-03-20 19:23:00,
2013-03-20 12:28:00,52.5,51.1,30.08,SE,144,0.0,0.0,95,0.00,,,0.37,Wunderground v.1.12,2013-03-20 19:28:00,
2013-03-20 12:33:00,52.6,51.2,30.08,SE,144,0.0,0.0,95,0.00,,,0.37,Wunderground v.1.12,2013-03-20 19:33:00,
2013-03-20 12:38:00,52.6,51.2,30.08,SSE,148,0.0,3.0,95,0.00,,,0.37,Wunderground v.1.12,2013-03-20 19:38:00,
2013-03-20 12:43:00,52.5,50.8,30.08,SSE,148,3.0,3.0,94,0.00,,,0.37,Wunderground v.1.12,2013-03-20 19:43:00,
2013-03-20 12:48:00,52.8,51.4,30.08,SSE,148,1.0,3.0,95,0.00,,,0.37,Wunderground v.1.12,2013-03-20 19:48:00,
2013-03-20 12:53:00,53.2,51.8,30.08,South,184,0.0,5.0,95,0.00,,,0.37,Wunderground v.1.12,2013-03-20 19:53:00,
2013-03-20 12:59:00,53.3,51.6,30.08,SSW,202,0.0,4.0,94,0.00,,,0.37,Wunderground v.1.12,2013-03-20 19:59:00,
2013-03-20 13:04:00,53.3,51.3,30.08,SSW,205,0.0,5.0,93,0.00,,,0.37,Wunderground v.1.12,2013-03-20 20:04:00,
2013-03-20 13:09:00,53.8,51.8,30.08,SE,136,0.0,6.0,93,0.00,,,0.37,Wunderground v.1.12,2013-03-20 20:09:00,
2013-03-20 13:14:00,53.9,51.9,30.08,SE,140,0.0,4.0,93,0.00,,,0.37,Wunderground v.1.12,2013-03-20 20:14:00,
2013-03-20 13:19:00,53.9,51.6,30.08,SSW,192,0.0,4.0,92,0.00,,,0.37,Wunderground v.1.12,2013-03-20 20:19:00,
2013-03-20 13:24:00,54.4,52.1,30.08,SSW,194,0.0,1.0,92,0.00,,,0.37,Wunderground v.1.12,2013-03-20 20:24:00,
2013-03-20 13:29:00,54.7,52.4,30.08,SSW,194,0.0,0.0,92,0.00,,,0.37,Wunderground v.1.12,2013-03-20 20:29:00,
2013-03-20 13:34:00,54.7,51.8,30.08,SSW,202,0.0,5.0,90,0.00,,,0.37,Wunderground v.1.12,2013-03-20 20:34:00,
2013-03-20 13:39:00,55.0,52.1,30.08,SSW,203,0.0,1.0,90,0.00,,,0.37,Wunderground v.1.12,2013-03-20 20:39:00,
2013-03-20 13:44:00,55.3,52.4,30.08,SSW,203,0.0,0.0,90,0.00,,,0.37,Wunderground v.1.12,2013-03-20 20:44:00,
2013-03-20 13:49:00,55.3,52.1,30.08,South,190,0.0,3.0,89,0.00,,,0.37,Wunderground v.1.12,2013-03-20 20:49:00,
2013-03-20 13:54:00,55.1,51.9,30.08,South,191,0.0,2.0,89,0.00,,,0.37,Wunderground v.1.12,2013-03-20 20:54:00,
2013-03-20 13:59:00,55.4,52.2,30.08,SSW,192,0.0,3.0,89,0.00,,,0.37,Wunderground v.1.12,2013-03-20 20:59:00,
2013-03-20 14:04:00,55.7,52.5,30.07,SSW,192,0.0,0.0,89,0.00,,,0.37,Wunderground v.1.12,2013-03-20 21:04:00,
2013-03-20 14:09:00,55.9,52.7,30.07,SSW,192,3.0,3.0,89,0.00,,,0.37,Wunderground v.1.12,2013-03-20 21:09:00,
2013-03-20 14:14:00,55.7,51.9,30.07,SSW,192,0.0,0.0,87,0.00,,,0.37,Wunderground v.1.12,2013-03-20 21:14:00,
2013-03-20 14:19:00,55.7,51.6,30.07,SSW,192,0.0,2.0,86,0.00,,,0.37,Wunderground v.1.12,2013-03-20 21:19:00,
2013-03-20 14:24:00,56.0,52.5,30.07,SSW,192,0.0,0.0,88,0.00,,,0.37,Wunderground v.1.12,2013-03-20 21:24:00,
2013-03-20 14:29:00,56.5,53.0,30.07,SSW,192,0.0,0.0,88,0.00,,,0.37,Wunderground v.1.12,2013-03-20 21:29:00,
2013-03-20 14:34:00,56.9,53.4,30.06,SSW,192,0.0,0.0,88,0.00,,,0.37,Wunderground v.1.12,2013-03-20 21:34:00,
2013-03-20 14:39:00,57.2,53.0,30.06,SSW,192,0.0,1.0,86,0.00,,,0.37,Wunderground v.1.12,2013-03-20 21:39:00,
2013-03-20 14:44:00,57.5,53.3,30.06,SSW,192,0.0,0.0,86,0.00,,,0.37,Wunderground v.1.12,2013-03-20 21:44:00,
2013-03-20 14:50:00,57.5,53.3,30.06,SSW,192,0.0,0.0,86,0.00,,,0.37,Wunderground v.1.12,2013-03-20 21:50:00,
2013-03-20 14:55:00,57.6,52.8,30.06,SSW,192,0.0,0.0,84,0.00,,,0.37,Wunderground v.1.12,2013-03-20 21:55:00,
2013-03-20 15:00:00,57.6,52.1,30.06,SSW,192,0.0,0.0,82,0.00,,,0.37,Wunderground v.1.12,2013-03-20 22:00:00,
2013-03-20 15:05:00,58.1,53.3,30.06,SSW,192,0.0,0.0,84,0.00,,,0.37,Wunderground v.1.12,2013-03-20 22:05:00,
2013-03-20 15:10:00,58.3,53.2,30.06,SSW,192,0.0,0.0,83,0.00,,,0.37,Wunderground v.1.12,2013-03-20 22:10:00,
2013-03-20 15:15:00,58.4,52.6,30.06,SSW,192,0.0,0.0,81,0.00,,,0.37,Wunderground v.1.12,2013-03-20 22:15:00,
2013-03-20 15:20:00,58.6,52.8,30.06,SSW,192,0.0,4.0,81,0.00,,,0.37,Wunderground v.1.12,2013-03-20 22:20:00,
2013-03-20 15:25:00,59.0,53.2,30.06,SSW,192,0.0,0.0,81,0.00,,,0.37,Wunderground v.1.12,2013-03-20 22:25:00,
2013-03-20 15:31:00,59.0,53.8,30.06,SSW,192,0.0,0.0,83,0.00,,,0.37,Wunderground v.1.12,2013-03-20 22:31:00,
2013-03-20 15:36:00,58.9,53.7,30.06,SSW,192,0.0,0.0,83,0.00,,,0.37,Wunderground v.1.12,2013-03-20 22:36:00,
2013-03-20 15:41:00,58.6,53.8,30.06,SSW,192,0.0,0.0,84,0.00,,,0.37,Wunderground v.1.12,2013-03-20 22:41:00,
2013-03-20 15:46:00,58.4,53.6,30.05,SSW,192,0.0,0.0,84,0.00,,,0.37,Wunderground v.1.12,2013-03-20 22:46:00,
2013-03-20 15:51:00,58.1,53.3,30.05,SSW,192,0.0,0.0,84,0.00,,,0.37,Wunderground v.1.12,2013-03-20 22:51:00,
2013-03-20 15:56:00,57.8,53.0,30.05,SSW,195,0.0,3.0,84,0.00,,,0.37,Wunderground v.1.12,2013-03-20 22:56:00,
2013-03-20 16:02:00,57.6,53.1,30.05,SSW,195,0.0,0.0,85,0.00,,,0.37,Wunderground v.1.12,2013-03-20 23:02:00,
2013-03-20 16:07:00,57.8,53.3,30.05,SSW,195,0.0,0.0,85,0.00,,,0.37,Wunderground v.1.12,2013-03-20 23:07:00,
2013-03-20 16:12:00,57.8,53.0,30.05,SSW,195,0.0,0.0,84,0.00,,,0.37,Wunderground v.1.12,2013-03-20 23:12:00,
2013-03-20 16:17:00,57.8,53.0,30.05,SSW,195,0.0,0.0,84,0.00,,,0.37,Wunderground v.1.12,2013-03-20 23:17:00,
2013-03-20 16:22:00,57.8,53.0,30.05,SSW,195,0.0,0.0,84,0.00,,,0.37,Wunderground v.1.12,2013-03-20 23:22:00,
2013-03-20 16:27:00,58.1,53.0,30.05,SSW,195,0.0,0.0,83,0.00,,,0.37,Wunderground v.1.12,2013-03-20 23:27:00,
2013-03-20 16:32:00,58.3,53.5,30.04,SSW,195,0.0,0.0,84,0.00,,,0.37,Wunderground v.1.12,2013-03-20 23:32:00,
2013-03-20 16:38:00,58.3,53.2,30.04,SSW,195,0.0,0.0,83,0.00,,,0.37,Wunderground v.1.12,2013-03-20 23:38:00,
2013-03-20 16:43:00,58.4,53.6,30.04,SSW,195,0.0,0.0,84,0.00,,,0.37,Wunderground v.1.12,2013-03-20 23:43:00,
2013-03-20 16:48:00,58.4,53.6,30.04,SSW,195,0.0,0.0,84,0.00,,,0.37,Wunderground v.1.12,2013-03-20 23:48:00,
2013-03-20 16:53:00,58.3,53.5,30.04,SSW,195,0.0,0.0,84,0.00,,,0.37,Wunderground v.1.12,2013-03-20 23:53:00,
2013-03-20 16:58:00,58.1,53.0,30.04,SSW,195,0.0,0.0,83,0.00,,,0.37,Wunderground v.1.12,2013-03-20 23:58:00,
2013-03-20 17:03:00,58.0,53.2,30.05,SSW,195,0.0,2.0,84,0.00,,,0.37,Wunderground v.1.12,2013-03-21 00:03:00,
2013-03-20 17:08:00,58.1,53.3,30.05,West,276,0.0,3.0,84,0.00,,,0.37,Wunderground v.1.12,2013-03-21 00:08:00,
2013-03-20 17:13:00,58.3,53.5,30.05,West,276,0.0,0.0,84,0.00,,,0.37,Wunderground v.1.12,2013-03-21 00:13:00,
2013-03-20 17:18:00,58.3,53.5,30.05,West,277,0.0,2.0,84,0.00,,,0.37,Wunderground v.1.12,2013-03-21 00:18:00,
2013-03-20 17:23:00,58.1,53.0,30.05,West,276,0.0,1.0,83,0.00,,,0.37,Wunderground v.1.12,2013-03-21 00:23:00,
2013-03-20 17:28:00,58.1,53.0,30.05,NW,313,0.0,6.0,83,0.00,,,0.37,Wunderground v.1.12,2013-03-21 00:28:00,
2013-03-20 17:33:00,58.0,52.9,30.05,NW,313,0.0,1.0,83,0.00,,,0.37,Wunderground v.1.12,2013-03-21 00:33:00,
2013-03-20 17:38:00,58.1,53.0,30.05,NW,308,0.0,0.0,83,0.00,,,0.37,Wunderground v.1.12,2013-03-21 00:38:00,
2013-03-20 17:43:00,57.8,51.7,30.05,NW,307,0.0,7.0,80,0.00,,,0.37,Wunderground v.1.12,2013-03-21 00:43:00,
2013-03-20 17:48:00,57.6,51.1,30.05,NW,304,0.0,5.0,79,0.00,,,0.37,Wunderground v.1.12,2013-03-21 00:48:00,
2013-03-20 17:54:00,57.6,51.8,30.05,NW,304,0.0,1.0,81,0.00,,,0.37,Wunderground v.1.12,2013-03-21 00:54:00,
2013-03-20 17:59:00,57.6,51.8,30.05,NW,304,0.0,1.0,81,0.00,,,0.37,Wunderground v.1.12,2013-03-21 00:59:00,
2013-03-20 18:04:00,57.6,51.8,30.05,NW,311,0.0,5.0,81,0.00,,,0.37,Wunderground v.1.12,2013-03-21 01:04:00,
2013-03-20 18:08:00,58.0,52.2,30.05,NW,311,0.0,1.0,81,0.00,,,0.37,Wunderground v.1.12,2013-03-21 01:08:00,
2013-03-20 18:13:00,58.3,51.8,30.05,NW,311,0.0,2.0,79,0.00,,,0.37,Wunderground v.1.12,2013-03-21 01:13:00,
2013-03-20 18:19:00,58.3,50.8,30.05,NW,311,0.0,0.0,76,0.00,,,0.37,Wunderground v.1.12,2013-03-21 01:19:00,
2013-03-20 18:24:00,58.4,50.9,30.05,NW,311,0.0,0.0,76,0.00,,,0.37,Wunderground v.1.12,2013-03-21 01:24:00,
2013-03-20 18:29:00,58.3,51.1,30.05,NW,311,0.0,0.0,77,0.00,,,0.37,Wunderground v.1.12,2013-03-21 01:29:00,
2013-03-20 18:35:00,58.3,51.5,30.05,NW,311,0.0,0.0,78,0.00,,,0.37,Wunderground v.1.12,2013-03-21 01:35:00,
2013-03-20 18:39:00,58.3,51.5,30.05,NW,311,0.0,0.0,78,0.00,,,0.37,Wunderground v.1.12,2013-03-21 01:39:00,
2013-03-20 18:45:00,58.3,51.5,30.05,NW,311,0.0,0.0,78,0.00,,,0.37,Wunderground v.1.12,2013-03-21 01:45:00,
2013-03-20 18:50:00,58.1,51.3,30.06,NW,311,0.0,0.0,78,0.00,,,0.37,Wunderground v.1.12,2013-03-21 01:50:00,
2013-03-20 18:55:00,57.8,51.0,30.06,NW,311,0.0,0.0,78,0.00,,,0.37,Wunderground v.1.12,2013-03-21 01:55:00,
2013-03-20 19:00:00,57.5,50.7,30.06,NW,311,0.0,0.0,78,0.00,,,0.37,Wunderground v.1.12,2013-03-21 02:00:00,
2013-03-20 19:05:00,57.0,50.2,30.06,NW,311,0.0,0.0,78,0.00,,,0.37,Wunderground v.1.12,2013-03-21 02:05:00,
2013-03-20 19:10:00,56.7,50.3,30.06,NW,311,0.0,0.0,79,0.00,,,0.37,Wunderground v.1.12,2013-03-21 02:10:00,
2013-03-20 19:15:00,56.5,50.1,30.06,NW,311,0.0,0.0,79,0.00,,,0.37,Wunderground v.1.12,2013-03-21 02:15:00,
2013-03-20 19:20:00,56.2,50.1,30.06,NW,311,0.0,0.0,80,0.00,,,0.37,Wunderground v.1.12,2013-03-21 02:20:00,
2013-03-20 19:25:00,56.0,49.9,30.06,NW,311,0.0,0.0,80,0.00,,,0.37,Wunderground v.1.12,2013-03-21 02:25:00,
2013-03-20 19:30:00,55.7,50.0,30.06,NW,315,0.0,0.0,81,0.00,,,0.37,Wunderground v.1.12,2013-03-21 02:30:00,
2013-03-20 19:35:00,55.6,49.9,30.06,NW,315,0.0,0.0,81,0.00,,,0.37,Wunderground v.1.12,2013-03-21 02:35:00,
2013-03-20 19:40:00,55.4,49.7,30.06,NW,315,0.0,1.0,81,0.00,,,0.37,Wunderground v.1.12,2013-03-21 02:40:00,
2013-03-20 19:45:00,55.3,49.9,30.06,NW,315,0.0,1.0,82,0.00,,,0.37,Wunderground v.1.12,2013-03-21 02:45:00,
2013-03-20 19:50:00,55.3,49.9,30.07,NW,315,0.0,0.0,82,0.00,,,0.37,Wunderground v.1.12,2013-03-21 02:50:00,
2013-03-20 19:56:00,55.1,49.7,30.07,NW,315,0.0,0.0,82,0.00,,,0.37,Wunderground v.1.12,2013-03-21 02:56:00,
2013-03-20 20:01:00,55.0,49.6,30.07,NW,315,0.0,0.0,82,0.00,,,0.37,Wunderground v.1.12,2013-03-21 03:01:00,
2013-03-20 20:06:00,55.0,49.6,30.07,NW,315,0.0,0.0,82,0.00,,,0.37,Wunderground v.1.12,2013-03-21 03:06:00,
2013-03-20 20:11:00,54.8,49.4,30.07,NW,315,0.0,0.0,82,0.00,,,0.37,Wunderground v.1.12,2013-03-21 03:11:00,
2013-03-20 20:16:00,54.7,49.3,30.07,NW,315,0.0,0.0,82,0.00,,,0.37,Wunderground v.1.12,2013-03-21 03:16:00,
2013-03-20 20:21:00,54.7,49.3,30.07,NW,315,0.0,0.0,82,0.00,,,0.37,Wunderground v.1.12,2013-03-21 03:21:00,
2013-03-20 20:27:00,54.5,49.4,30.07,NW,315,0.0,0.0,83,0.00,,,0.37,Wunderground v.1.12,2013-03-21 03:27:00,
2013-03-20 20:32:00,54.5,49.4,30.08,NW,315,0.0,0.0,83,0.00,,,0.37,Wunderground v.1.12,2013-03-21 03:32:00,
2013-03-20 20:37:00,54.4,49.3,30.08,NW,315,2.0,2.0,83,0.00,,,0.37,Wunderground v.1.12,2013-03-21 03:37:00,
2013-03-20 20:42:00,54.4,49.3,30.08,NW,315,3.0,3.0,83,0.00,,,0.37,Wunderground v.1.12,2013-03-21 03:42:00,
2013-03-20 20:47:00,54.2,49.1,30.08,NW,315,0.0,0.0,83,0.00,,,0.37,Wunderground v.1.12,2013-03-21 03:47:00,
2013-03-20 20:52:00,54.2,49.5,30.08,NW,314,0.0,1.0,84,0.00,,,0.37,Wunderground v.1.12,2013-03-21 03:52:00,
2013-03-20 20:57:00,54.1,49.4,30.08,NW,314,0.0,0.0,84,0.00,,,0.37,Wunderground v.1.12,2013-03-21 03:57:00,
2013-03-20 21:00:00,53.9,49.2,30.08,NW,314,0.0,0.0,84,0.00,,,0.37,Wunderground v.1.12,2013-03-21 04:00:00,
2013-03-20 21:05:00,53.8,49.1,30.09,NW,314,0.0,1.0,84,0.00,,,0.37,Wunderground v.1.12,2013-03-21 04:05:00,
2013-03-20 21:10:00,53.6,48.9,30.09,NW,313,0.0,0.0,84,0.00,,,0.37,Wunderground v.1.12,2013-03-21 04:10:00,
2013-03-20 21:15:00,53.3,48.9,30.09,NW,314,1.0,1.0,85,0.00,,,0.37,Wunderground v.1.12,2013-03-21 04:15:00,
2013-03-20 21:20:00,53.2,48.8,30.09,NW,314,2.0,5.0,85,0.00,,,0.37,Wunderground v.1.12,2013-03-21 04:20:00,
2013-03-20 21:26:00,53.1,48.7,30.09,NW,309,3.0,3.0,85,0.00,,,0.37,Wunderground v.1.12,2013-03-21 04:26:00,
2013-03-20 21:31:00,52.9,48.5,30.09,NW,313,3.0,6.0,85,0.00,,,0.37,Wunderground v.1.12,2013-03-21 04:31:00,
2013-03-20 21:37:00,52.5,47.8,30.09,NW,325,0.0,5.0,84,0.00,,,0.37,Wunderground v.1.12,2013-03-21 04:37:00,
2013-03-20 21:42:00,52.3,47.6,30.09,NW,321,3.0,6.0,84,0.00,,,0.37,Wunderground v.1.12,2013-03-21 04:42:00,
2013-03-20 21:47:00,52.2,47.5,30.10,NW,323,0.0,4.0,84,0.00,,,0.37,Wunderground v.1.12,2013-03-21 04:47:00,
2013-03-20 21:52:00,52.0,47.0,30.10,NW,322,0.0,1.0,83,0.00,,,0.37,Wunderground v.1.12,2013-03-21 04:52:00,
2013-03-20 21:57:00,51.9,46.9,30.10,NW,322,0.0,1.0,83,0.00,,,0.37,Wunderground v.1.12,2013-03-21 04:57:00,
2013-03-20 22:02:00,51.7,47.0,30.11,NW,323,0.0,3.0,84,0.00,,,0.37,Wunderground v.1.12,2013-03-21 05:02:00,
2013-03-20 22:07:00,51.7,47.0,30.11,NW,323,0.0,3.0,84,0.00,,,0.37,Wunderground v.1.12,2013-03-21 05:07:00,
2013-03-20 22:12:00,51.6,46.9,30.11,NW,317,0.0,1.0,84,0.00,,,0.37,Wunderground v.1.12,2013-03-21 05:12:00,
2013-03-20 22:17:00,51.4,46.7,30.11,NW,317,0.0,2.0,84,0.00,,,0.37,Wunderground v.1.12,2013-03-21 05:17:00,
2013-03-20 22:22:00,51.1,46.4,30.11,NW,318,2.0,4.0,84,0.00,,,0.37,Wunderground v.1.12,2013-03-21 05:22:00,
2013-03-20 22:27:00,50.8,46.1,30.11,NW,321,2.0,3.0,84,0.00,,,0.37,Wunderground v.1.12,2013-03-21 05:27:00,
2013-03-20 22:32:00,50.7,46.0,30.11,NNW,327,4.0,4.0,84,0.00,,,0.37,Wunderground v.1.12,2013-03-21 05:32:00,
2013-03-20 22:37:00,50.5,45.5,30.11,NNW,329,4.0,4.0,83,0.00,,,0.37,Wunderground v.1.12,2013-03-21 05:37:00,
2013-03-20 22:42:00,50.4,45.4,30.11,NW,325,2.0,5.0,83,0.00,,,0.37,Wunderground v.1.12,2013-03-21 05:42:00,
2013-03-20 22:48:00,50.2,45.2,30.12,NW,325,3.0,5.0,83,0.00,,,0.37,Wunderground v.1.12,2013-03-21 05:48:00,
2013-03-20 22:53:00,50.1,44.8,30.12,NNW,329,4.0,6.0,82,0.00,,,0.37,Wunderground v.1.12,2013-03-21 05:53:00,
2013-03-20 22:58:00,49.8,44.5,30.12,NW,319,3.0,9.0,82,0.00,,,0.37,Wunderground v.1.12,2013-03-21 05:58:00,
2013-03-20 23:03:00,49.5,44.2,30.12,NW,318,10.0,11.0,82,0.00,,,0.37,Wunderground v.1.12,2013-03-21 06:03:00,
2013-03-20 23:08:00,49.1,43.8,30.12,NW,323,4.0,9.0,82,0.00,,,0.37,Wunderground v.1.12,2013-03-21 06:08:00,
2013-03-20 23:13:00,48.9,43.6,30.12,NNW,346,3.0,10.0,82,0.00,,,0.37,Wunderground v.1.12,2013-03-21 06:13:00,
2013-03-20 23:18:00,48.8,43.5,30.12,NNW,348,9.0,9.0,82,0.00,,,0.37,Wunderground v.1.12,2013-03-21 06:18:00,
2013-03-20 23:23:00,48.5,42.9,30.12,NNW,346,5.0,11.0,81,0.00,,,0.37,Wunderground v.1.12,2013-03-21 06:23:00,
2013-03-20 23:29:00,48.3,42.7,30.12,NNW,340,4.0,11.0,81,0.00,,,0.37,Wunderground v.1.12,2013-03-21 06:29:00,
2013-03-20 23:34:00,48.0,42.8,30.12,NNW,327,13.0,13.0,82,0.00,,,0.37,Wunderground v.1.12,2013-03-21 06:34:00,
2013-03-20 23:39:00,47.6,42.1,30.12,NW,316,4.0,12.0,81,0.00,,,0.37,Wunderground v.1.12,2013-03-21 06:39:00,
2013-03-20 23:44:00,47.4,41.9,30.12,NW,325,7.0,12.0,81,0.00,,,0.37,Wunderground v.1.12,2013-03-21 06:44:00,
2013-03-20 23:49:00,47.3,41.8,30.12,NNW,339,6.0,14.0,81,0.00,,,0.37,Wunderground v.1.12,2013-03-21 06:49:00,
2013-03-20 23:54:00,47.0,41.5,30.12,NW,309,6.0,12.0,81,0.00,,,0.37,Wunderground v.1.12,2013-03-21 06:54:00,
2013-03-20 23:59:00,46.7,41.5,30.12,NNW,345,8.0,12.0,82,0.00,,,0.37,Wunderground v.1.12,2013-03-21 06:59:00,